Capitol Logistics 2348

Operating for ABX



TJSJ
Luis Munoz Marin International Airport
San Juan, PR
KCVG
Cincinnati/Northern Kentucky International Airport
Covington, US

Activity Log

Date Flight Route Aircraft Duration
No Flights Yet

Route Details

Aircraft Information
Group: Boeing Common
Types: B752,B762,B763
Route Data
Demand: V
Distance: 1575nm
Duration: 3h 54m
Recm'd Route: JAAWS2 UTAHS DONQU Y185 RENAH NUCAR CHS HMV CUBIM JAKIE5
Origin Wx: TJSJ 271956Z 06019G24KT 10SM FEW037 FEW100 29/22 A3001 RMK AO2 SLP161 T02940222
Dest. Wx: KCVG 272052Z 26008KT 9SM -TSRA FEW020CB BKN090 OVC110 16/16 A2977 RMK AO2 RAB14 TSB49 SLP077 OCNL LTGIC N-NE TS N-NE MOV E P0001 60001 T01610156 55002
Notes:

Financial History
Total Freight: 0lbs
Average Load: 0lbs/flt
Fuel Used: 0lbs
Avg. Fuel Used: 0lbs/flt
Fuel Expense: $0
Avg. Fuel Expense: $0
Avg. Fuel Cost: $0/lbs
Total Gross Income: $0
Pilot Pay: $0
Total Expenses: $0
Total Revenue: $0
Average Revenue: $0